Euskara    
Meteorología y climatología de Navarra
Datos de la estación - Meteo Navarra

Estación de Carrascal GN

Altitud 568 m.


Datos desde el 14/01/2021 hasta el 15/01/2021 en horario solar
Los datos son PROVISIONALES

Anterior Página 1 de 1 Siguiente Descargar: Formato para Excel 2000 o superior   Formato csv   Formato para OpenOffice Calc
Fecha Temperatura Humedad relativa Radiación global Insolación Precipitación Vel. viento 10 m Vel. viento 10 m Dir. viento 10 m
°C % W/m² s l/m² m/s km/h °
14/01/2021 0:00 4.9 92 0.0 0 0.0 7.9 28.3 31
14/01/2021 0:10 4.7 93 0.0 0 0.0 8.1 29.2 31
14/01/2021 0:20 4.7 93 0.0 0 0.0 8.9 32.0 35
14/01/2021 0:30 4.8 93 0.0 0 0.0 8.7 31.4 35
14/01/2021 0:40 4.7 93 0.0 0 0.0 8.7 31.2 34
14/01/2021 0:50 4.8 93 0.0 0 0.0 8.3 30.0 30
14/01/2021 1:00 4.7 93 0.0 0 0.0 8.0 28.7 29
14/01/2021 1:10 4.8 92 0.0 0 0.0 8.0 28.8 24
14/01/2021 1:20 4.8 92 0.0 0 0.0 7.5 27.1 26
14/01/2021 1:30 4.8 92 0.0 0 0.0 7.5 26.9 29
14/01/2021 1:40 4.9 91 0.0 0 0.0 7.8 28.1 30
14/01/2021 1:50 5.0 91 0.0 0 0.0 8.6 30.8 30
14/01/2021 2:00 5.0 90 0.0 0 0.0 8.6 31.0 33
14/01/2021 2:10 4.9 90 0.0 0 0.0 9.2 33.3 35
14/01/2021 2:20 5.0 90 0.0 0 0.0 8.6 30.9 31
14/01/2021 2:30 4.9 90 0.0 0 0.0 8.1 29.3 27
14/01/2021 2:40 4.7 91 0.0 0 0.0 7.9 28.3 22
14/01/2021 2:50 4.9 90 0.0 0 0.0 8.2 29.7 29
14/01/2021 3:00 4.9 90 0.0 0 0.0 7.9 28.4 32
14/01/2021 3:10 4.9 90 0.0 0 0.0 7.8 27.9 33
14/01/2021 3:20 5.0 89 0.0 0 0.0 8.3 29.9 29
14/01/2021 3:30 5.1 88 0.0 0 0.0 8.0 28.7 29
14/01/2021 3:40 5.0 87 0.0 0 0.0 9.3 33.3 15
14/01/2021 3:50 5.0 88 0.0 0 0.0 8.6 31.1 15
14/01/2021 4:00 4.9 88 0.0 0 0.0 8.8 31.7 13
14/01/2021 4:10 4.9 88 0.0 0 0.0 8.5 30.5 12
14/01/2021 4:20 4.8 88 0.0 0 0.0 8.3 30.0 10
14/01/2021 4:30 4.9 88 0.0 0 0.0 7.8 28.2 12
14/01/2021 4:40 4.9 88 0.0 0 0.0 7.9 28.5 13
14/01/2021 4:50 5.0 87 0.0 0 0.0 7.8 28.0 13
14/01/2021 5:00 4.9 87 0.0 0 0.0 7.6 27.2 11
14/01/2021 5:10 4.9 87 0.0 0 0.0 7.5 27.1 9
14/01/2021 5:20 4.9 87 0.0 0 0.0 8.2 29.6 8
14/01/2021 5:30 4.9 87 0.0 0 0.0 7.8 27.9 10
14/01/2021 5:40 4.8 88 0.0 0 0.0 7.8 28.2 12
14/01/2021 5:50 4.8 88 0.0 0 0.0 7.4 26.7 13
14/01/2021 6:00 5.0 87 0.0 0 0.0 7.0 25.1 17
14/01/2021 6:10 4.9 87 0.0 0 0.0 6.7 24.0 15
14/01/2021 6:20 4.8 87 0.0 0 0.0 7.6 27.3 9
14/01/2021 6:30 4.8 87 0.0 0 0.0 7.5 27.0 12
14/01/2021 6:40 4.7 86 0.0 0 0.0 7.1 25.4 15
14/01/2021 6:50 4.8 86 0.0 0 0.0 7.0 25.3 19
14/01/2021 7:00 4.9 86 0.0 0 0.0 6.4 22.9 22
14/01/2021 7:10 4.8 86 0.0 0 0.0 6.8 24.6 20
14/01/2021 7:20 4.8 87 0.0 0 0.0 6.1 21.8 26
14/01/2021 7:30 4.7 87 0.0 0 0.0 6.6 23.8 22
14/01/2021 7:40 4.8 87 0.0 0 0.0 7.9 28.5 17
14/01/2021 7:50 4.9 86 0.0 0 0.0 8.5 30.5 15
14/01/2021 8:00 4.8 86 6.8 0 0.0 7.7 27.7 19
14/01/2021 8:10 4.9 86 25.5 0 0.0 7.6 27.2 25
14/01/2021 8:20 4.9 87 25.0 0 0.0 7.8 27.9 33
14/01/2021 8:30 5.0 86 35.0 0 0.0 8.3 29.9 30
14/01/2021 8:40 5.1 85 46.1 4 0.0 9.0 32.3 34
14/01/2021 8:50 5.2 85 50.2 0 0.0 8.4 30.1 34
14/01/2021 9:00 5.2 85 37.3 0 0.0 8.4 30.2 35
14/01/2021 9:10 5.2 85 32.0 0 0.0 7.3 26.1 28
14/01/2021 9:20 5.2 84 33.1 0 0.0 8.3 29.7 21
14/01/2021 9:30 5.4 83 64.5 0 0.0 9.2 33.2 21
14/01/2021 9:40 5.4 84 76.8 0 0.0 9.2 33.0 16
14/01/2021 9:50 5.3 84 76.2 0 0.0 8.4 30.2 21
14/01/2021 10:00 5.4 84 65.8 0 0.0 7.9 28.3 22
14/01/2021 10:10 5.4 83 71.2 0 0.0 8.5 30.6 15
14/01/2021 10:20 5.4 83 88.6 0 0.0 9.7 34.8 11
14/01/2021 10:30 5.4 82 115.8 0 0.0 10.0 36.1 13
14/01/2021 10:40 5.6 81 131.9 0 0.0 10.5 37.9 14
14/01/2021 10:50 5.7 80 155.6 0 0.0 10.2 36.5 13
14/01/2021 11:00 5.9 79 186.1 22 0.0 8.6 30.9 17
14/01/2021 11:10 6.0 79 222.0 394 0.0 8.1 29.1 22
14/01/2021 11:20 6.2 78 210.5 218 0.0 8.6 30.9 15
14/01/2021 11:30 6.2 79 199.0 68 0.0 8.9 32.0 20
14/01/2021 11:40 6.2 78 275.3 600 0.0 8.8 31.6 20
14/01/2021 11:50 6.5 77 293.3 600 0.0 8.6 30.8 22
14/01/2021 12:00 6.6 76 298.1 562 0.0 8.0 28.7 22
14/01/2021 12:10 6.5 76 198.7 138 0.0 7.0 25.3 27
14/01/2021 12:20 6.4 76 211.0 84 0.0 7.0 25.1 17
14/01/2021 12:30 6.8 77 286.3 384 0.0 6.9 24.9 13
14/01/2021 12:40 6.9 76 438.4 490 0.0 7.7 27.5 12
14/01/2021 12:50 7.7 74 672.7 600 0.0 8.4 30.3 3
14/01/2021 13:00 8.0 73 690.9 600 0.0 8.4 30.3 6
14/01/2021 13:10 7.9 73 627.1 600 0.0 9.1 32.8 7
14/01/2021 13:20 7.7 73 579.3 600 0.0 9.4 33.8 9
14/01/2021 13:30 8.0 71 632.4 600 0.0 9.0 32.3 5
14/01/2021 13:40 7.8 71 415.3 480 0.0 9.0 32.4 8
14/01/2021 13:50 7.0 73 154.0 0 0.0 7.9 28.3 13
14/01/2021 14:00 7.1 75 254.5 462 0.0 7.5 27.0 12
14/01/2021 14:10 7.1 76 142.0 34 0.0 8.4 30.1 11
14/01/2021 14:20 6.9 77 92.9 0 0.0 8.3 29.8 7
14/01/2021 14:30 6.6 78 84.1 0 0.0 8.1 29.2 10
14/01/2021 14:40 6.6 78 123.7 8 0.0 8.1 29.1 10
14/01/2021 14:50 6.6 78 75.7 0 0.0 8.3 29.8 13
14/01/2021 15:00 6.6 79 74.7 0 0.0 9.0 32.5 13
14/01/2021 15:10 6.6 79 75.1 0 0.0 8.7 31.2 10
14/01/2021 15:20 6.4 80 65.4 0 0.0 7.2 25.9 13
14/01/2021 15:30 6.4 80 105.7 134 0.0 7.5 27.1 13
14/01/2021 15:40 6.5 80 158.4 572 0.0 7.9 28.3 11
14/01/2021 15:50 6.5 80 117.1 356 0.0 7.9 28.5 15
14/01/2021 16:00 6.3 82 101.2 402 0.0 7.4 26.7 19
14/01/2021 16:10 6.2 83 62.9 240 0.0 5.4 19.5 31
14/01/2021 16:20 6.1 84 25.3 0 0.0 5.9 21.1 37
14/01/2021 16:30 6.1 85 0.7 0 0.0 4.6 16.5 35
14/01/2021 16:40 6.0 86 0.0 0 0.0 4.3 15.3 34
14/01/2021 16:50 5.8 87 0.0 0 0.0 4.5 16.3 35
14/01/2021 17:00 5.7 89 0.0 0 0.0 4.3 15.3 33
14/01/2021 17:10 5.5 90 0.0 0 0.0 3.9 14.0 30
14/01/2021 17:20 5.5 91 0.0 0 0.0 4.5 16.3 21
14/01/2021 17:30 5.4 91 0.0 0 0.0 4.5 16.2 16
14/01/2021 17:40 5.4 91 0.0 0 0.0 4.7 16.7 14
14/01/2021 17:50 5.4 92 0.0 0 0.0 4.6 16.5 22
14/01/2021 18:00 5.3 92 0.0 0 0.0 5.2 18.5 23
14/01/2021 18:10 5.4 94 0.0 0 0.0 5.2 18.9 15
14/01/2021 18:20 5.1 95 0.0 0 0.0 4.6 16.4 20
14/01/2021 18:30 5.2 96 0.0 0 0.1 5.8 20.7 32
14/01/2021 18:40 5.2 96 0.0 0 0.0 6.8 24.3 39
14/01/2021 18:50 5.2 97 0.0 0 0.0 6.8 24.3 40
14/01/2021 19:00 5.2 97 0.0 0 0.0 6.4 23.1 42
14/01/2021 19:10 5.1 97 0.0 0 0.0 5.9 21.4 42
14/01/2021 19:20 5.3 98 0.0 0 0.0 6.5 23.2 41
14/01/2021 19:30 5.4 98 0.0 0 0.0 6.5 23.3 40
14/01/2021 19:40 5.5 98 0.0 0 0.0 6.1 22.1 39
14/01/2021 19:50 5.4 98 0.0 0 0.0 6.4 23.0 41
14/01/2021 20:00 5.6 98 0.0 0 0.0 5.9 21.2 40
14/01/2021 20:10 5.6 98 0.0 0 0.0 5.8 20.7 38
14/01/2021 20:20 5.7 98 0.0 0 0.0 5.6 20.2 38
14/01/2021 20:30 5.8 98 0.0 0 0.0 5.6 20.3 35
14/01/2021 20:40 6.1 97 0.0 0 0.0 5.5 19.7 21
14/01/2021 20:50 6.3 95 0.0 0 0.0 7.6 27.3 360
14/01/2021 21:00 6.9 89 0.0 0 0.0 9.1 32.7 356
14/01/2021 21:10 6.8 91 0.0 0 0.1 7.6 27.5 354
14/01/2021 21:20 6.9 91 0.0 0 0.1 8.0 28.9 356
14/01/2021 21:30 7.1 89 0.0 0 0.0 7.3 26.3 5
14/01/2021 21:40 6.7 91 0.0 0 0.0 7.0 25.1 8
14/01/2021 21:50 6.9 87 0.0 0 0.0 8.5 30.7 349
14/01/2021 22:00 7.0 86 0.0 0 0.0 7.9 28.4 356
14/01/2021 22:10 6.5 88 0.0 0 0.0 7.2 25.9 0
14/01/2021 22:20 6.6 88 0.0 0 0.0 6.9 24.9 10
14/01/2021 22:30 6.5 89 0.0 0 0.0 8.2 29.4 359
14/01/2021 22:40 6.5 89 0.0 0 0.0 7.5 26.9 360
14/01/2021 22:50 6.5 91 0.0 0 0.0 8.5 30.5 353
14/01/2021 23:00 6.3 92 0.0 0 0.0 8.7 31.4 4
14/01/2021 23:10 6.0 90 0.0 0 0.0 8.2 29.5 7
14/01/2021 23:20 6.2 88 0.0 0 0.0 8.3 29.8 0
14/01/2021 23:30 6.1 85 0.0 0 0.0 9.0 32.4 7
14/01/2021 23:40 5.9 86 0.0 0 0.0 7.9 28.3 11
14/01/2021 23:50 5.8 86 0.0 0 0.0 7.8 28.0 6
Anterior Página 1 de 1 Siguiente

NOTA: Tipo de datos según el color:
   - Valores diarios o 10 minutos correctos
   - Valores diarios calculados a partir de un número de datos 10 minutos menor que 144 y mayor que 120, o de un número de datos semihorarios menor que 48 y mayor que 40 (caso de las estaciones de INTIA Y Ministerio)
   - Valores diez minutos estimados


Contacto        Enlaces        Aviso legal